sensor_id;sensor_type;location;lat;lon;timestamp;noise_LAeq;noise_LA_min;noise_LA_max;noise_LA01;noise_LA95
70740;Laerm;58330;51.888;11.052;2023-07-31T00:00:39;30.06;28.84;31.26;;
70740;Laerm;58330;51.888;11.052;2023-07-31T00:03:06;30.09;28.79;31.39;;
70740;Laerm;58330;51.888;11.052;2023-07-31T00:05:32;30.14;28.82;31.35;;
70740;Laerm;58330;51.888;11.052;2023-07-31T00:07:58;30.18;28.92;31.57;;
70740;Laerm;58330;51.888;11.052;2023-07-31T00:10:26;30.23;28.75;31.45;;
70740;Laerm;58330;51.888;11.052;2023-07-31T00:12:52;30.26;28.89;31.56;;
70740;Laerm;58330;51.888;11.052;2023-07-31T00:15:18;30.36;29.14;31.94;;
70740;Laerm;58330;51.888;11.052;2023-07-31T00:17:45;30.45;29.05;32.11;;
70740;Laerm;58330;51.888;11.052;2023-07-31T00:20:11;30.51;29.16;31.98;;
70740;Laerm;58330;51.888;11.052;2023-07-31T00:22:38;30.53;29.18;31.78;;
70740;Laerm;58330;51.888;11.052;2023-07-31T00:25:04;30.63;29.37;32.06;;
70740;Laerm;58330;51.888;11.052;2023-07-31T00:27:32;30.67;29.20;31.92;;
70740;Laerm;58330;51.888;11.052;2023-07-31T00:29:58;30.69;29.46;31.97;;
70740;Laerm;58330;51.888;11.052;2023-07-31T00:32:25;30.72;29.57;32.03;;
70740;Laerm;58330;51.888;11.052;2023-07-31T00:34:51;30.74;29.23;37.52;;
70740;Laerm;58330;51.888;11.052;2023-07-31T00:37:17;30.76;29.48;31.95;;
70740;Laerm;58330;51.888;11.052;2023-07-31T00:39:43;30.77;29.52;31.87;;
70740;Laerm;58330;51.888;11.052;2023-07-31T00:42:10;30.77;29.38;32.32;;
70740;Laerm;58330;51.888;11.052;2023-07-31T00:44:37;30.77;29.18;31.88;;
70740;Laerm;58330;51.888;11.052;2023-07-31T00:47:04;30.76;29.49;31.99;;
70740;Laerm;58330;51.888;11.052;2023-07-31T00:49:30;30.75;29.47;31.96;;
70740;Laerm;58330;51.888;11.052;2023-07-31T00:51:57;30.75;29.37;32.02;;
70740;Laerm;58330;51.888;11.052;2023-07-31T00:54:23;30.73;29.47;31.98;;
70740;Laerm;58330;51.888;11.052;2023-07-31T00:56:49;30.71;29.19;31.96;;
70740;Laerm;58330;51.888;11.052;2023-07-31T00:59:16;30.67;29.25;32.07;;
70740;Laerm;58330;51.888;11.052;2023-07-31T01:01:45;30.69;29.41;31.88;;
70740;Laerm;58330;51.888;11.052;2023-07-31T01:04:11;30.68;29.47;32.00;;
70740;Laerm;58330;51.888;11.052;2023-07-31T01:06:40;30.70;29.49;31.92;;
70740;Laerm;58330;51.888;11.052;2023-07-31T01:09:09;30.73;29.48;31.95;;
70740;Laerm;58330;51.888;11.052;2023-07-31T01:11:38;30.68;29.18;31.81;;
70740;Laerm;58330;51.888;11.052;2023-07-31T01:14:08;30.69;29.41;33.96;;
70740;Laerm;58330;51.888;11.052;2023-07-31T01:16:34;30.72;29.47;31.83;;
70740;Laerm;58330;51.888;11.052;2023-07-31T01:19:02;30.76;29.27;32.24;;
70740;Laerm;58330;51.888;11.052;2023-07-31T01:21:37;30.76;29.49;31.87;;
70740;Laerm;58330;51.888;11.052;2023-07-31T01:24:17;30.78;29.59;32.01;;
70740;Laerm;58330;51.888;11.052;2023-07-31T01:26:47;32.70;29.48;63.62;;
70740;Laerm;58330;51.888;11.052;2023-07-31T01:29:15;30.78;29.42;31.93;;
70740;Laerm;58330;51.888;11.052;2023-07-31T01:31:43;30.77;29.39;32.04;;
70740;Laerm;58330;51.888;11.052;2023-07-31T01:34:12;30.78;29.59;31.94;;
70740;Laerm;58330;51.888;11.052;2023-07-31T01:36:40;30.78;29.39;32.12;;
70740;Laerm;58330;51.888;11.052;2023-07-31T01:39:06;30.77;29.32;31.89;;
70740;Laerm;58330;51.888;11.052;2023-07-31T01:41:33;30.75;29.51;32.08;;
70740;Laerm;58330;51.888;11.052;2023-07-31T01:44:01;30.75;29.59;31.97;;
70740;Laerm;58330;51.888;11.052;2023-07-31T01:46:27;30.76;29.47;31.89;;
70740;Laerm;58330;51.888;11.052;2023-07-31T01:48:53;30.78;29.55;31.97;;
70740;Laerm;58330;51.888;11.052;2023-07-31T01:51:20;30.74;29.52;35.01;;
70740;Laerm;58330;51.888;11.052;2023-07-31T01:53:46;30.70;29.50;31.83;;
70740;Laerm;58330;51.888;11.052;2023-07-31T01:56:12;30.69;29.16;47.31;;
70740;Laerm;58330;51.888;11.052;2023-07-31T01:58:39;30.60;29.15;31.76;;
70740;Laerm;58330;51.888;11.052;2023-07-31T02:01:07;30.55;29.34;31.94;;
70740;Laerm;58330;51.888;11.052;2023-07-31T02:03:33;30.49;29.25;31.89;;
70740;Laerm;58330;51.888;11.052;2023-07-31T02:05:59;30.39;29.18;31.78;;
70740;Laerm;58330;51.888;11.052;2023-07-31T02:08:26;30.34;29.05;31.67;;
70740;Laerm;58330;51.888;11.052;2023-07-31T02:10:52;30.29;29.05;31.50;;
70740;Laerm;58330;51.888;11.052;2023-07-31T02:13:18;30.23;29.01;31.50;;
70740;Laerm;58330;51.888;11.052;2023-07-31T02:15:45;30.17;28.80;31.40;;
70740;Laerm;58330;51.888;11.052;2023-07-31T02:18:12;30.10;29.02;33.50;;
70740;Laerm;58330;51.888;11.052;2023-07-31T02:20:39;30.01;28.88;31.13;;
70740;Laerm;58330;51.888;11.052;2023-07-31T02:23:05;30.01;28.78;34.90;;
70740;Laerm;58330;51.888;11.052;2023-07-31T02:25:31;29.98;28.71;31.21;;
70740;Laerm;58330;51.888;11.052;2023-07-31T02:27:58;29.92;28.71;31.40;;
70740;Laerm;58330;51.888;11.052;2023-07-31T02:30:24;29.89;28.67;30.96;;
70740;Laerm;58330;51.888;11.052;2023-07-31T02:32:50;29.89;28.68;31.05;;
70740;Laerm;58330;51.888;11.052;2023-07-31T02:35:18;29.89;28.55;31.42;;
70740;Laerm;58330;51.888;11.052;2023-07-31T02:37:44;29.87;28.73;33.01;;
70740;Laerm;58330;51.888;11.052;2023-07-31T02:40:11;29.83;28.55;30.96;;
70740;Laerm;58330;51.888;11.052;2023-07-31T02:42:37;29.78;28.30;31.06;;
70740;Laerm;58330;51.888;11.052;2023-07-31T02:45:04;29.72;28.38;31.43;;
70740;Laerm;58330;51.888;11.052;2023-07-31T02:47:30;29.71;28.51;30.79;;
70740;Laerm;58330;51.888;11.052;2023-07-31T02:49:56;29.72;28.47;31.08;;
70740;Laerm;58330;51.888;11.052;2023-07-31T02:52:24;29.75;28.47;33.57;;
70740;Laerm;58330;51.888;11.052;2023-07-31T02:54:50;29.97;28.20;52.32;;
70740;Laerm;58330;51.888;11.052;2023-07-31T02:57:16;29.75;28.33;41.89;;
70740;Laerm;58330;51.888;11.052;2023-07-31T02:59:42;29.71;28.39;35.82;;
70740;Laerm;58330;51.888;11.052;2023-07-31T03:02:09;29.72;28.49;31.26;;
70740;Laerm;58330;51.888;11.052;2023-07-31T03:04:35;29.72;28.35;31.34;;
70740;Laerm;58330;51.888;11.052;2023-07-31T03:07:02;29.60;28.25;31.04;;
70740;Laerm;58330;51.888;11.052;2023-07-31T03:09:30;29.59;28.20;30.83;;
70740;Laerm;58330;51.888;11.052;2023-07-31T03:11:56;29.65;28.38;31.00;;
70740;Laerm;58330;51.888;11.052;2023-07-31T03:14:22;29.61;28.01;30.96;;
70740;Laerm;58330;51.888;11.052;2023-07-31T03:16:48;29.62;28.13;30.80;;
70740;Laerm;58330;51.888;11.052;2023-07-31T03:19:15;29.57;28.28;30.79;;
70740;Laerm;58330;51.888;11.052;2023-07-31T03:21:41;29.60;27.76;30.79;;
70740;Laerm;58330;51.888;11.052;2023-07-31T03:24:07;29.59;28.45;30.78;;
70740;Laerm;58330;51.888;11.052;2023-07-31T03:26:35;29.57;28.27;30.83;;
70740;Laerm;58330;51.888;11.052;2023-07-31T03:29:02;29.59;28.28;30.91;;
70740;Laerm;58330;51.888;11.052;2023-07-31T03:31:28;29.56;28.22;30.83;;
70740;Laerm;58330;51.888;11.052;2023-07-31T03:33:54;29.49;28.14;31.01;;
70740;Laerm;58330;51.888;11.052;2023-07-31T03:36:21;29.47;28.21;30.62;;
70740;Laerm;58330;51.888;11.052;2023-07-31T03:38:47;29.45;28.12;30.66;;
70740;Laerm;58330;51.888;11.052;2023-07-31T03:41:13;29.41;27.94;30.65;;
70740;Laerm;58330;51.888;11.052;2023-07-31T03:43:41;29.43;28.04;30.68;;
70740;Laerm;58330;51.888;11.052;2023-07-31T03:46:07;29.43;28.12;31.02;;
70740;Laerm;58330;51.888;11.052;2023-07-31T03:48:33;29.43;28.28;30.73;;
70740;Laerm;58330;51.888;11.052;2023-07-31T03:50:59;29.43;28.12;30.63;;
70740;Laerm;58330;51.888;11.052;2023-07-31T03:53:26;29.43;28.18;30.66;;
70740;Laerm;58330;51.888;11.052;2023-07-31T03:55:52;29.43;28.22;30.73;;
70740;Laerm;58330;51.888;11.052;2023-07-31T03:58:18;29.43;28.07;30.54;;
70740;Laerm;58330;51.888;11.052;2023-07-31T04:00:46;29.44;28.20;30.86;;
70740;Laerm;58330;51.888;11.052;2023-07-31T04:03:13;29.45;27.97;30.69;;
70740;Laerm;58330;51.888;11.052;2023-07-31T04:05:39;29.46;27.89;30.78;;
70740;Laerm;58330;51.888;11.052;2023-07-31T04:08:05;29.49;28.10;30.73;;
70740;Laerm;58330;51.888;11.052;2023-07-31T04:10:32;29.49;28.15;30.83;;
70740;Laerm;58330;51.888;11.052;2023-07-31T04:12:58;29.50;28.24;34.10;;
70740;Laerm;58330;51.888;11.052;2023-07-31T04:15:25;29.55;28.39;30.67;;
70740;Laerm;58330;51.888;11.052;2023-07-31T04:17:52;29.59;28.17;30.98;;
70740;Laerm;58330;51.888;11.052;2023-07-31T04:20:18;29.63;28.29;30.82;;
70740;Laerm;58330;51.888;11.052;2023-07-31T04:22:45;29.60;28.24;31.00;;
70740;Laerm;58330;51.888;11.052;2023-07-31T04:25:11;29.55;28.01;30.94;;
70740;Laerm;58330;51.888;11.052;2023-07-31T04:27:37;29.53;28.33;34.44;;
70740;Laerm;58330;51.888;11.052;2023-07-31T04:30:04;36.07;27.99;71.08;;
70740;Laerm;58330;51.888;11.052;2023-07-31T04:32:31;29.54;27.60;30.99;;
70740;Laerm;58330;51.888;11.052;2023-07-31T04:34:58;29.50;28.18;30.74;;
70740;Laerm;58330;51.888;11.052;2023-07-31T04:37:25;29.49;28.11;32.52;;
70740;Laerm;58330;51.888;11.052;2023-07-31T04:39:51;29.45;28.03;31.29;;
70740;Laerm;58330;51.888;11.052;2023-07-31T04:42:17;29.42;28.18;36.75;;
70740;Laerm;58330;51.888;11.052;2023-07-31T04:44:43;29.40;28.03;30.71;;
70740;Laerm;58330;51.888;11.052;2023-07-31T04:47:10;29.39;27.97;30.82;;
70740;Laerm;58330;51.888;11.052;2023-07-31T04:49:36;29.41;27.78;36.75;;
70740;Laerm;58330;51.888;11.052;2023-07-31T04:52:04;29.39;28.00;32.07;;
70740;Laerm;58330;51.888;11.052;2023-07-31T04:54:30;29.39;27.90;30.80;;
70740;Laerm;58330;51.888;11.052;2023-07-31T04:56:57;29.35;28.02;30.66;;
70740;Laerm;58330;51.888;11.052;2023-07-31T04:59:23;29.36;28.17;30.91;;
70740;Laerm;58330;51.888;11.052;2023-07-31T05:01:49;29.35;27.84;30.65;;
70740;Laerm;58330;51.888;11.052;2023-07-31T05:04:15;29.31;27.72;33.06;;
70740;Laerm;58330;51.888;11.052;2023-07-31T05:06:42;35.77;28.01;70.91;;
70740;Laerm;58330;51.888;11.052;2023-07-31T05:09:09;29.20;27.98;32.50;;
70740;Laerm;58330;51.888;11.052;2023-07-31T05:11:36;29.18;27.60;30.50;;
70740;Laerm;58330;51.888;11.052;2023-07-31T05:14:02;29.18;27.77;38.58;;
70740;Laerm;58330;51.888;11.052;2023-07-31T05:16:28;29.19;27.76;40.71;;
70740;Laerm;58330;51.888;11.052;2023-07-31T05:18:55;29.14;27.78;30.46;;
70740;Laerm;58330;51.888;11.052;2023-07-31T05:21:21;29.13;27.47;34.34;;
70740;Laerm;58330;51.888;11.052;2023-07-31T05:23:47;29.12;27.60;30.54;;
70740;Laerm;58330;51.888;11.052;2023-07-31T05:26:15;29.34;27.72;43.94;;
70740;Laerm;58330;51.888;11.052;2023-07-31T05:28:41;29.16;27.67;38.01;;
70740;Laerm;58330;51.888;11.052;2023-07-31T05:31:07;29.20;27.86;39.37;;
70740;Laerm;58330;51.888;11.052;2023-07-31T05:33:33;29.16;27.85;34.40;;
70740;Laerm;58330;51.888;11.052;2023-07-31T05:36:00;29.21;27.76;39.85;;
70740;Laerm;58330;51.888;11.052;2023-07-31T05:38:26;29.50;27.64;42.73;;
70740;Laerm;58330;51.888;11.052;2023-07-31T05:40:52;29.97;27.77;44.87;;
70740;Laerm;58330;51.888;11.052;2023-07-31T05:43:20;29.55;27.73;42.03;;
70740;Laerm;58330;51.888;11.052;2023-07-31T05:45:46;29.28;27.87;40.05;;
70740;Laerm;58330;51.888;11.052;2023-07-31T05:48:13;29.28;27.82;44.83;;
70740;Laerm;58330;51.888;11.052;2023-07-31T05:50:39;29.43;27.85;41.92;;
70740;Laerm;58330;51.888;11.052;2023-07-31T05:53:05;29.35;27.62;39.99;;
70740;Laerm;58330;51.888;11.052;2023-07-31T05:55:33;29.18;27.59;36.29;;
70740;Laerm;58330;51.888;11.052;2023-07-31T05:57:59;28.99;27.57;30.31;;
70740;Laerm;58330;51.888;11.052;2023-07-31T06:00:26;28.99;27.33;34.25;;
70740;Laerm;58330;51.888;11.052;2023-07-31T06:02:53;28.99;27.48;30.33;;
70740;Laerm;58330;51.888;11.052;2023-07-31T06:05:19;28.99;27.55;30.34;;
70740;Laerm;58330;51.888;11.052;2023-07-31T06:07:46;29.00;27.51;30.55;;
70740;Laerm;58330;51.888;11.052;2023-07-31T06:10:12;29.03;27.68;30.49;;
70740;Laerm;58330;51.888;11.052;2023-07-31T06:12:38;29.04;27.68;38.18;;
70740;Laerm;58330;51.888;11.052;2023-07-31T06:15:05;29.01;27.60;30.24;;
70740;Laerm;58330;51.888;11.052;2023-07-31T06:17:33;28.99;27.79;30.16;;
70740;Laerm;58330;51.888;11.052;2023-07-31T06:19:59;28.96;27.53;30.31;;
70740;Laerm;58330;51.888;11.052;2023-07-31T06:22:25;28.98;27.66;30.31;;
70740;Laerm;58330;51.888;11.052;2023-07-31T06:24:52;29.00;27.49;30.51;;
70740;Laerm;58330;51.888;11.052;2023-07-31T06:27:18;29.07;27.81;30.48;;
70740;Laerm;58330;51.888;11.052;2023-07-31T06:29:44;29.10;27.81;30.56;;
70740;Laerm;58330;51.888;11.052;2023-07-31T06:32:10;29.13;27.49;30.42;;
70740;Laerm;58330;51.888;11.052;2023-07-31T06:34:38;29.13;27.67;30.75;;
70740;Laerm;58330;51.888;11.052;2023-07-31T06:37:04;29.13;27.85;30.45;;
70740;Laerm;58330;51.888;11.052;2023-07-31T06:39:31;29.13;27.68;30.44;;
70740;Laerm;58330;51.888;11.052;2023-07-31T06:41:57;107.37;27.98;113.56;;
70740;Laerm;58330;51.888;11.052;2023-07-31T06:44:23;109.25;95.87;112.64;;
70740;Laerm;58330;51.888;11.052;2023-07-31T06:46:49;104.06;87.18;111.70;;
70740;Laerm;58330;51.888;11.052;2023-07-31T06:49:16;103.39;62.79;106.70;;
70740;Laerm;58330;51.888;11.052;2023-07-31T06:51:43;103.51;79.49;108.63;;
70740;Laerm;58330;51.888;11.052;2023-07-31T06:54:10;102.27;28.22;106.39;;
70740;Laerm;58330;51.888;11.052;2023-07-31T06:56:36;29.33;27.94;30.63;;
70740;Laerm;58330;51.888;11.052;2023-07-31T06:59:02;29.38;27.95;30.47;;
70740;Laerm;58330;51.888;11.052;2023-07-31T07:01:29;29.36;27.99;30.50;;
70740;Laerm;58330;51.888;11.052;2023-07-31T07:03:55;29.46;28.00;30.66;;
70740;Laerm;58330;51.888;11.052;2023-07-31T07:06:22;29.66;28.32;30.80;;
70740;Laerm;58330;51.888;11.052;2023-07-31T07:08:49;29.73;28.31;31.00;;
70740;Laerm;58330;51.888;11.052;2023-07-31T07:11:16;29.90;28.66;31.20;;
70740;Laerm;58330;51.888;11.052;2023-07-31T07:13:42;30.06;28.85;31.59;;
70740;Laerm;58330;51.888;11.052;2023-07-31T07:16:08;30.22;29.05;31.37;;
70740;Laerm;58330;51.888;11.052;2023-07-31T07:18:35;30.33;29.06;31.41;;
70740;Laerm;58330;51.888;11.052;2023-07-31T07:21:01;30.45;29.00;31.52;;
70740;Laerm;58330;51.888;11.052;2023-07-31T07:23:28;30.55;29.19;31.80;;
70740;Laerm;58330;51.888;11.052;2023-07-31T07:25:55;30.54;29.34;31.87;;
70740;Laerm;58330;51.888;11.052;2023-07-31T07:28:22;30.54;29.04;31.60;;
70740;Laerm;58330;51.888;11.052;2023-07-31T07:30:50;30.55;29.42;31.93;;
70740;Laerm;58330;51.888;11.052;2023-07-31T07:33:17;30.50;29.15;31.87;;
70740;Laerm;58330;51.888;11.052;2023-07-31T07:35:43;30.54;29.16;31.65;;
70740;Laerm;58330;51.888;11.052;2023-07-31T07:38:09;30.62;29.43;31.75;;
70740;Laerm;58330;51.888;11.052;2023-07-31T07:40:38;30.50;29.20;31.65;;
70740;Laerm;58330;51.888;11.052;2023-07-31T07:43:05;30.57;29.44;31.69;;
70740;Laerm;58330;51.888;11.052;2023-07-31T07:45:32;30.87;29.58;32.10;;
70740;Laerm;58330;51.888;11.052;2023-07-31T07:47:58;30.96;29.75;32.03;;
70740;Laerm;58330;51.888;11.052;2023-07-31T07:50:25;31.06;29.86;32.27;;
70740;Laerm;58330;51.888;11.052;2023-07-31T07:52:53;31.18;29.98;32.40;;
70740;Laerm;58330;51.888;11.052;2023-07-31T07:55:20;31.33;30.05;32.72;;
70740;Laerm;58330;51.888;11.052;2023-07-31T07:57:46;31.37;30.10;32.79;;
70740;Laerm;58330;51.888;11.052;2023-07-31T08:00:17;31.34;30.16;32.60;;
70740;Laerm;58330;51.888;11.052;2023-07-31T08:02:43;31.38;30.03;32.60;;
70740;Laerm;58330;51.888;11.052;2023-07-31T08:05:09;31.50;30.25;32.50;;
70740;Laerm;58330;51.888;11.052;2023-07-31T08:07:36;31.54;30.20;32.60;;
70740;Laerm;58330;51.888;11.052;2023-07-31T08:10:02;31.56;30.33;32.97;;
70740;Laerm;58330;51.888;11.052;2023-07-31T08:12:29;31.51;30.24;32.76;;
70740;Laerm;58330;51.888;11.052;2023-07-31T08:14:56;31.49;30.15;32.86;;
70740;Laerm;58330;51.888;11.052;2023-07-31T08:17:23;31.50;30.33;32.95;;
70740;Laerm;58330;51.888;11.052;2023-07-31T08:19:50;31.47;30.03;32.73;;
70740;Laerm;58330;51.888;11.052;2023-07-31T08:22:16;31.47;30.18;32.63;;
70740;Laerm;58330;51.888;11.052;2023-07-31T08:24:42;31.65;30.32;33.46;;
70740;Laerm;58330;51.888;11.052;2023-07-31T08:27:09;31.66;30.17;33.79;;
70740;Laerm;58330;51.888;11.052;2023-07-31T08:29:35;31.33;29.87;32.61;;
70740;Laerm;58330;51.888;11.052;2023-07-31T08:32:01;31.63;30.04;40.83;;
70740;Laerm;58330;51.888;11.052;2023-07-31T08:34:29;31.24;29.59;32.81;;
70740;Laerm;58330;51.888;11.052;2023-07-31T08:36:55;30.99;29.55;32.63;;
70740;Laerm;58330;51.888;11.052;2023-07-31T08:39:21;30.97;29.57;32.34;;
70740;Laerm;58330;51.888;11.052;2023-07-31T08:41:48;30.90;29.33;32.27;;
70740;Laerm;58330;51.888;11.052;2023-07-31T08:44:14;30.98;29.37;33.89;;
70740;Laerm;58330;51.888;11.052;2023-07-31T08:46:41;31.61;29.69;34.30;;
70740;Laerm;58330;51.888;11.052;2023-07-31T08:49:08;31.70;29.98;35.17;;
70740;Laerm;58330;51.888;11.052;2023-07-31T08:51:36;31.67;30.14;34.03;;
70740;Laerm;58330;51.888;11.052;2023-07-31T08:54:03;31.71;30.14;33.70;;
70740;Laerm;58330;51.888;11.052;2023-07-31T08:56:30;31.89;30.42;33.52;;
70740;Laerm;58330;51.888;11.052;2023-07-31T08:58:57;31.47;29.80;33.31;;
70740;Laerm;58330;51.888;11.052;2023-07-31T09:01:24;31.35;30.03;34.35;;
70740;Laerm;58330;51.888;11.052;2023-07-31T09:03:53;31.39;29.98;32.73;;
70740;Laerm;58330;51.888;11.052;2023-07-31T09:06:20;31.41;30.16;32.61;;
70740;Laerm;58330;51.888;11.052;2023-07-31T09:08:50;31.42;30.12;32.85;;
70740;Laerm;58330;51.888;11.052;2023-07-31T09:11:17;31.42;30.16;32.59;;
70740;Laerm;58330;51.888;11.052;2023-07-31T09:13:43;31.45;30.28;32.59;;
70740;Laerm;58330;51.888;11.052;2023-07-31T09:16:09;31.43;30.13;32.57;;
70740;Laerm;58330;51.888;11.052;2023-07-31T09:18:41;31.43;30.13;32.69;;
70740;Laerm;58330;51.888;11.052;2023-07-31T09:21:18;31.43;29.98;32.71;;
70740;Laerm;58330;51.888;11.052;2023-07-31T09:23:45;31.44;30.14;32.86;;
70740;Laerm;58330;51.888;11.052;2023-07-31T09:26:14;31.42;29.93;32.65;;
70740;Laerm;58330;51.888;11.052;2023-07-31T09:28:54;31.42;30.04;32.62;;
70740;Laerm;58330;51.888;11.052;2023-07-31T09:31:31;31.44;29.85;32.61;;
70740;Laerm;58330;51.888;11.052;2023-07-31T09:33:57;31.48;30.39;32.84;;
70740;Laerm;58330;51.888;11.052;2023-07-31T09:36:23;31.42;30.17;32.51;;
70740;Laerm;58330;51.888;11.052;2023-07-31T09:38:49;31.42;30.30;32.77;;
70740;Laerm;58330;51.888;11.052;2023-07-31T09:41:17;31.45;30.00;32.56;;
70740;Laerm;58330;51.888;11.052;2023-07-31T09:43:44;31.46;30.14;32.58;;
70740;Laerm;58330;51.888;11.052;2023-07-31T09:46:19;31.50;30.22;32.85;;
70740;Laerm;58330;51.888;11.052;2023-07-31T09:48:46;31.46;30.10;32.82;;
70740;Laerm;58330;51.888;11.052;2023-07-31T09:51:12;31.40;29.78;32.64;;
70740;Laerm;58330;51.888;11.052;2023-07-31T09:53:39;31.37;29.72;32.83;;
70740;Laerm;58330;51.888;11.052;2023-07-31T09:56:05;31.36;30.03;32.60;;
70740;Laerm;58330;51.888;11.052;2023-07-31T09:58:33;31.39;30.06;32.52;;
70740;Laerm;58330;51.888;11.052;2023-07-31T10:01:00;31.33;30.04;32.53;;
70740;Laerm;58330;51.888;11.052;2023-07-31T10:03:27;31.32;30.01;32.64;;
70740;Laerm;58330;51.888;11.052;2023-07-31T10:05:56;31.31;30.01;32.82;;
70740;Laerm;58330;51.888;11.052;2023-07-31T10:08:23;31.37;29.86;32.50;;
70740;Laerm;58330;51.888;11.052;2023-07-31T10:10:54;31.38;29.99;32.55;;
70740;Laerm;58330;51.888;11.052;2023-07-31T10:13:20;31.40;30.15;36.60;;
70740;Laerm;58330;51.888;11.052;2023-07-31T10:15:49;31.41;30.25;32.74;;
70740;Laerm;58330;51.888;11.052;2023-07-31T10:18:16;31.40;30.09;32.93;;
70740;Laerm;58330;51.888;11.052;2023-07-31T10:20:44;31.37;30.15;32.56;;
70740;Laerm;58330;51.888;11.052;2023-07-31T10:23:11;31.26;29.97;32.47;;
70740;Laerm;58330;51.888;11.052;2023-07-31T10:25:38;31.25;30.04;32.43;;
70740;Laerm;58330;51.888;11.052;2023-07-31T10:28:05;31.20;29.81;32.44;;
70740;Laerm;58330;51.888;11.052;2023-07-31T10:30:32;31.23;29.92;32.42;;
70740;Laerm;58330;51.888;11.052;2023-07-31T10:33:01;31.32;30.12;32.46;;
70740;Laerm;58330;51.888;11.052;2023-07-31T10:35:28;31.37;30.20;32.55;;
70740;Laerm;58330;51.888;11.052;2023-07-31T10:37:54;31.37;30.02;32.69;;
70740;Laerm;58330;51.888;11.052;2023-07-31T10:40:23;65.49;-328.31;96.23;;
70740;Laerm;58330;51.888;11.052;2023-07-31T10:42:51;5.00;5.00;5.00;;
70740;Laerm;58330;51.888;11.052;2023-07-31T10:45:23;5.00;5.00;5.00;;
70740;Laerm;58330;51.888;11.052;2023-07-31T10:47:51;60.38;-324.78;96.22;;
70740;Laerm;58330;51.888;11.052;2023-07-31T10:50:26;5.00;5.00;5.00;;
70740;Laerm;58330;51.888;11.052;2023-07-31T10:52:52;5.00;5.00;5.00;;
70740;Laerm;58330;51.888;11.052;2023-07-31T10:55:24;5.00;5.00;5.00;;
70740;Laerm;58330;51.888;11.052;2023-07-31T10:57:51;5.00;5.00;5.00;;
70740;Laerm;58330;51.888;11.052;2023-07-31T11:00:18;5.00;5.00;5.00;;
70740;Laerm;58330;51.888;11.052;2023-07-31T11:02:48;5.00;5.00;5.00;;
70740;Laerm;58330;51.888;11.052;2023-07-31T11:05:22;5.00;5.00;5.00;;
70740;Laerm;58330;51.888;11.052;2023-07-31T11:08:11;5.00;5.00;5.00;;
70740;Laerm;58330;51.888;11.052;2023-07-31T11:10:37;5.00;5.00;5.00;;
70740;Laerm;58330;51.888;11.052;2023-07-31T11:13:04;5.00;5.00;5.00;;
70740;Laerm;58330;51.888;11.052;2023-07-31T11:15:30;5.00;5.00;5.00;;
70740;Laerm;58330;51.888;11.052;2023-07-31T11:17:56;5.00;5.00;5.00;;
70740;Laerm;58330;51.888;11.052;2023-07-31T11:20:23;5.00;5.00;5.00;;
70740;Laerm;58330;51.888;11.052;2023-07-31T11:22:50;5.00;5.00;5.00;;
70740;Laerm;58330;51.888;11.052;2023-07-31T11:25:17;5.00;5.00;5.00;;
70740;Laerm;58330;51.888;11.052;2023-07-31T11:27:44;5.00;5.00;5.00;;
70740;Laerm;58330;51.888;11.052;2023-07-31T11:30:11;5.00;5.00;5.00;;
70740;Laerm;58330;51.888;11.052;2023-07-31T11:32:37;5.00;5.00;5.00;;
70740;Laerm;58330;51.888;11.052;2023-07-31T11:35:04;5.00;5.00;5.00;;
70740;Laerm;58330;51.888;11.052;2023-07-31T11:37:38;5.00;5.00;5.00;;
70740;Laerm;58330;51.888;11.052;2023-07-31T11:40:05;5.00;5.00;5.00;;
70740;Laerm;58330;51.888;11.052;2023-07-31T11:42:33;5.00;5.00;5.00;;
70740;Laerm;58330;51.888;11.052;2023-07-31T11:45:01;5.00;5.00;5.00;;
70740;Laerm;58330;51.888;11.052;2023-07-31T11:47:27;5.00;5.00;5.00;;
70740;Laerm;58330;51.888;11.052;2023-07-31T11:49:54;5.00;5.00;5.00;;
70740;Laerm;58330;51.888;11.052;2023-07-31T11:52:21;5.00;5.00;5.00;;
70740;Laerm;58330;51.888;11.052;2023-07-31T11:54:48;5.00;5.00;5.00;;
70740;Laerm;58330;51.888;11.052;2023-07-31T11:57:14;5.00;5.00;5.00;;
70740;Laerm;58330;51.888;11.052;2023-07-31T11:59:42;5.00;5.00;5.00;;
70740;Laerm;58330;51.888;11.052;2023-07-31T12:02:09;5.00;5.00;5.00;;
70740;Laerm;58330;51.888;11.052;2023-07-31T12:04:35;5.00;5.00;5.00;;
70740;Laerm;58330;51.888;11.052;2023-07-31T12:07:02;5.00;5.00;5.00;;
70740;Laerm;58330;51.888;11.052;2023-07-31T12:09:28;5.00;5.00;5.00;;
70740;Laerm;58330;51.888;11.052;2023-07-31T12:11:54;5.00;5.00;5.00;;
70740;Laerm;58330;51.888;11.052;2023-07-31T12:14:21;5.00;5.00;5.00;;
70740;Laerm;58330;51.888;11.052;2023-07-31T12:16:49;5.00;5.00;5.00;;
70740;Laerm;58330;51.888;11.052;2023-07-31T12:19:19;5.00;5.00;5.00;;
70740;Laerm;58330;51.888;11.052;2023-07-31T12:21:45;5.00;5.00;5.00;;
70740;Laerm;58330;51.888;11.052;2023-07-31T12:24:11;5.00;5.00;5.00;;
70740;Laerm;58330;51.888;11.052;2023-07-31T12:26:37;5.00;5.00;5.00;;
70740;Laerm;58330;51.888;11.052;2023-07-31T12:29:05;5.00;5.00;5.00;;
70740;Laerm;58330;51.888;11.052;2023-07-31T12:31:33;5.00;5.00;5.00;;
70740;Laerm;58330;51.888;11.052;2023-07-31T12:34:01;5.00;5.00;5.00;;
70740;Laerm;58330;51.888;11.052;2023-07-31T12:36:27;5.00;5.00;5.00;;
70740;Laerm;58330;51.888;11.052;2023-07-31T12:38:55;5.00;5.00;5.00;;
70740;Laerm;58330;51.888;11.052;2023-07-31T12:41:23;5.00;5.00;5.00;;
70740;Laerm;58330;51.888;11.052;2023-07-31T12:43:49;5.00;5.00;5.00;;
70740;Laerm;58330;51.888;11.052;2023-07-31T12:46:16;5.00;5.00;5.00;;
70740;Laerm;58330;51.888;11.052;2023-07-31T12:48:42;5.00;5.00;5.00;;
70740;Laerm;58330;51.888;11.052;2023-07-31T12:51:10;5.00;5.00;5.00;;
70740;Laerm;58330;51.888;11.052;2023-07-31T12:53:36;5.00;5.00;5.00;;
70740;Laerm;58330;51.888;11.052;2023-07-31T12:56:02;5.00;5.00;5.00;;
70740;Laerm;58330;51.888;11.052;2023-07-31T12:58:29;5.00;5.00;5.00;;
70740;Laerm;58330;51.888;11.052;2023-07-31T13:00:55;5.00;5.00;5.00;;
70740;Laerm;58330;51.888;11.052;2023-07-31T13:03:22;5.00;5.00;5.00;;
70740;Laerm;58330;51.888;11.052;2023-07-31T13:05:48;5.00;5.00;5.00;;
70740;Laerm;58330;51.888;11.052;2023-07-31T13:08:19;5.00;5.00;5.00;;
70740;Laerm;58330;51.888;11.052;2023-07-31T13:10:45;5.00;5.00;5.00;;
70740;Laerm;58330;51.888;11.052;2023-07-31T13:13:13;5.00;5.00;5.00;;
70740;Laerm;58330;51.888;11.052;2023-07-31T13:15:39;5.00;5.00;5.00;;
70740;Laerm;58330;51.888;11.052;2023-07-31T13:18:05;5.00;5.00;5.00;;
70740;Laerm;58330;51.888;11.052;2023-07-31T13:20:32;5.00;5.00;5.00;;
70740;Laerm;58330;51.888;11.052;2023-07-31T13:22:58;5.00;5.00;5.00;;
70740;Laerm;58330;51.888;11.052;2023-07-31T13:25:25;5.00;5.00;5.00;;
70740;Laerm;58330;51.888;11.052;2023-07-31T13:27:52;5.00;5.00;5.00;;
70740;Laerm;58330;51.888;11.052;2023-07-31T13:30:18;5.00;5.00;5.00;;
70740;Laerm;58330;51.888;11.052;2023-07-31T13:32:45;5.00;5.00;5.00;;
70740;Laerm;58330;51.888;11.052;2023-07-31T13:35:11;5.00;5.00;5.00;;
70740;Laerm;58330;51.888;11.052;2023-07-31T13:37:37;5.00;5.00;5.00;;